Terminal Aerodrome Forecast
Issued by NWS

Home | Current Version | Previous Version | Text Only | Print | Product List | Glossary On
Versions: 1 2 3 4 5 6 7 8 9 10 11 12 13 14 15 16 17 18 19 20 21 22 23 24 25 26 27 28 29 30 31 32 33 34 35 36 37 38 39 40 41 42 43 44 45 46 47 48 49 50
000
FTUS43 KMKX 232320
TAFUES
TAF
KUES 232320Z 2400/2424 14006KT 2SM -RA BR OVC003
     FM240300 12005KT 3/4SM -RA BR OVC003
     FM241200 28007KT 2SM -RA OVC006
     FM241500 29011G18KT 3SM -RA OVC008
     FM241800 29014G22KT 3SM -RASN OVC010
     FM242100 27015G24KT 1SM -SN OVC010=

USA.gov is the U.S. government's official web portal to all federal, state and local government web resources and services.